PWSweather.com
Personal Weather Stations
Station Observations
SHAHALMS1
Eftra, Falkenberg, HA

EftraFalkenberg, HA

Lat: 56.85, Lon: 12.65

Elevation: 140

Station Type:

http://hem.passagen.se/risarp101

High Low Average
Temperature 68.4°F20.2°C 62.4°F16.9°C 64.7°F18.2°C
Dew Point 63.7°F17.6°C 59.0°F15.0°C 61.0°F16.1°C
Winds 6.8 mph 10.9 kmh Calm Calm 4.0 mph WSW6.4 kmh WSW
Wind Gusts 17.5 mph28.2 kmh -- 10.0 mph16.1 kmh
Humidity 94% 82% 88%
Pressure 29.95 in1014.2 mb 29.80 in1009.1 mb -
Precipitation 0.62 in15.7 mm - -
Hour Temp Dew Point Humidity Winds Wind Gusts Pressure Precip Precip Rate Daily Precip Total
12:00 AM 64.2°F17.9°C 59.6°F15.3°C 85% 6.5 mph W10.5 kmh W 15.4 mph24.8 kmh 29.92 in1013.2 mb 0.00 in0.0 mm 0.00 in0.0 mm 0.00 in0.0 mm
12:15 AM 64.0°F17.8°C 59.4°F15.2°C 85% 5.4 mph W8.7 kmh W 13.6 mph21.9 kmh 29.89 in1012.2 mb 0.00 in0.0 mm 0.00 in0.0 mm 0.00 in0.0 mm
12:30 AM 64.0°F17.8°C 59.4°F15.2°C 85% 6.1 mph WSW9.8 kmh WSW 14.0 mph22.5 kmh 29.89 in1012.2 mb 0.00 in0.0 mm 0.00 in0.0 mm 0.00 in0.0 mm
12:45 AM 64.0°F17.8°C 59.4°F15.2°C 85% 5.9 mph W9.5 kmh W 12.2 mph19.6 kmh 29.89 in1012.2 mb 0.00 in0.0 mm 0.00 in0.0 mm 0.00 in0.0 mm
01:00 AM 64.0°F17.8°C 59.1°F15.1°C 84% 6.5 mph W10.5 kmh W 15.7 mph25.3 kmh 29.92 in1013.2 mb 0.00 in0.0 mm 0.00 in0.0 mm 0.00 in0.0 mm
01:15 AM 64.2°F17.9°C 59.3°F15.2°C 84% 6.2 mph W10.0 kmh W 11.8 mph19.0 kmh 29.92 in1013.2 mb 0.00 in0.0 mm 0.00 in0.0 mm 0.00 in0.0 mm
01:30 AM 64.2°F17.9°C 59.3°F15.2°C 84% 5.5 mph W8.9 kmh W 11.1 mph17.9 kmh 29.92 in1013.2 mb 0.00 in0.0 mm 0.00 in0.0 mm 0.00 in0.0 mm
01:45 AM 64.0°F17.8°C 59.1°F15.1°C 84% 6.5 mph W10.5 kmh W 16.8 mph27.0 kmh 29.92 in1013.2 mb 0.00 in0.0 mm 0.00 in0.0 mm 0.00 in0.0 mm
02:00 AM 64.0°F17.8°C 59.1°F15.1°C 84% 5.9 mph W9.5 kmh W 11.8 mph19.0 kmh 29.92 in1013.2 mb 0.00 in0.0 mm 0.00 in0.0 mm 0.00 in0.0 mm
02:15 AM 64.0°F17.8°C 59.1°F15.1°C 84% 6.8 mph W10.9 kmh W 15.0 mph24.1 kmh 29.92 in1013.2 mb 0.00 in0.0 mm 0.00 in0.0 mm 0.00 in0.0 mm
02:30 AM 64.0°F17.8°C 59.4°F15.2°C 85% 5.8 mph W9.3 kmh W 14.7 mph23.7 kmh 29.92 in1013.2 mb 0.00 in0.0 mm 0.00 in0.0 mm 0.00 in0.0 mm
02:45 AM 64.0°F17.8°C 59.4°F15.2°C 85% 5.9 mph W9.5 kmh W 15.4 mph24.8 kmh 29.92 in1013.2 mb 0.00 in0.0 mm 0.00 in0.0 mm 0.00 in0.0 mm
03:00 AM 64.0°F17.8°C 59.4°F15.2°C 85% 5.6 mph W9.0 kmh W 13.6 mph21.9 kmh 29.92 in1013.2 mb 0.00 in0.0 mm 0.00 in0.0 mm 0.00 in0.0 mm
03:15 AM 64.0°F17.8°C 59.4°F15.2°C 85% 6.3 mph W10.1 kmh W 17.5 mph28.2 kmh 29.92 in1013.2 mb 0.00 in0.0 mm 0.00 in0.0 mm 0.00 in0.0 mm
03:30 AM 64.2°F17.9°C 59.6°F15.3°C 85% 6.3 mph W10.1 kmh W 16.1 mph25.9 kmh 29.92 in1013.2 mb 0.00 in0.0 mm 0.00 in0.0 mm 0.00 in0.0 mm
03:45 AM 64.2°F17.9°C 59.6°F15.3°C 85% 6.7 mph W10.8 kmh W 13.6 mph21.9 kmh 29.92 in1013.2 mb 0.00 in0.0 mm 0.00 in0.0 mm 0.00 in0.0 mm
04:00 AM 64.0°F17.8°C 59.4°F15.2°C 85% 6.2 mph W10.0 kmh W 14.0 mph22.5 kmh 29.89 in1012.2 mb 0.00 in0.0 mm 0.00 in0.0 mm 0.00 in0.0 mm
04:15 AM 64.0°F17.8°C 59.4°F15.2°C 85% 5.9 mph W9.5 kmh W 12.5 mph20.1 kmh 29.89 in1012.2 mb 0.00 in0.0 mm 0.00 in0.0 mm 0.00 in0.0 mm
04:30 AM 64.0°F17.8°C 59.4°F15.2°C 85% 6.2 mph W10.0 kmh W 12.2 mph19.6 kmh 29.89 in1012.2 mb 0.00 in0.0 mm 0.00 in0.0 mm 0.00 in0.0 mm
04:45 AM 64.2°F17.9°C 59.6°F15.3°C 85% 5.2 mph W8.4 kmh W 15.4 mph24.8 kmh 29.95 in1014.2 mb 0.00 in0.0 mm 0.00 in0.0 mm 0.00 in0.0 mm
05:00 AM 63.5°F17.5°C 59.2°F15.1°C 86% 5.7 mph WNW9.2 kmh WNW 16.5 mph26.6 kmh 29.92 in1013.2 mb 0.00 in0.0 mm 0.00 in0.0 mm 0.00 in0.0 mm
05:15 AM 63.0°F17.2°C 59.0°F15.0°C 87% 3.6 mph WNW5.8 kmh WNW 10.4 mph16.7 kmh 29.92 in1013.2 mb 0.00 in0.0 mm 0.00 in0.0 mm 0.00 in0.0 mm
05:30 AM 62.8°F17.1°C 59.2°F15.1°C 88% 2.8 mph W4.5 kmh W 10.0 mph16.1 kmh 29.89 in1012.2 mb 0.00 in0.0 mm 0.00 in0.0 mm 0.00 in0.0 mm
05:45 AM 62.8°F17.1°C 59.2°F15.1°C 88% 3.0 mph WNW4.8 kmh WNW 10.0 mph16.1 kmh 29.89 in1012.2 mb 0.00 in0.0 mm 0.00 in0.0 mm 0.00 in0.0 mm
06:00 AM 62.8°F17.1°C 59.2°F15.1°C 88% 2.4 mph WNW3.9 kmh WNW 9.3 mph15.0 kmh 29.92 in1013.2 mb 0.00 in0.0 mm 0.00 in0.0 mm 0.00 in0.0 mm
06:15 AM 62.8°F17.1°C 59.5°F15.3°C 89% 3.6 mph W5.8 kmh W 10.4 mph16.7 kmh 29.92 in1013.2 mb 0.00 in0.0 mm 0.00 in0.0 mm 0.00 in0.0 mm
06:30 AM 63.0°F17.2°C 59.7°F15.4°C 89% 2.4 mph WNW3.9 kmh WNW 8.6 mph13.8 kmh 29.92 in1013.2 mb 0.00 in0.0 mm 0.00 in0.0 mm 0.00 in0.0 mm
06:45 AM 63.3°F17.4°C 60.3°F15.7°C 90% 1.9 mph WNW3.1 kmh WNW 6.8 mph10.9 kmh 29.92 in1013.2 mb 0.00 in0.0 mm 0.00 in0.0 mm 0.00 in0.0 mm
07:00 AM 63.5°F17.5°C 60.5°F15.8°C 90% 2.1 mph W3.4 kmh W 9.3 mph15.0 kmh 29.92 in1013.2 mb 0.00 in0.0 mm 0.00 in0.0 mm 0.00 in0.0 mm
07:15 AM 63.7°F17.6°C 60.7°F15.9°C 90% 1.5 mph W2.4 kmh W 6.1 mph9.8 kmh 29.92 in1013.2 mb 0.00 in0.0 mm 0.00 in0.0 mm 0.00 in0.0 mm
07:30 AM 63.9°F17.7°C 60.9°F16.1°C 90% 0.5 mph WSW0.8 kmh WSW 4.3 mph6.9 kmh 29.92 in1013.2 mb 0.00 in0.0 mm 0.00 in0.0 mm 0.00 in0.0 mm
07:45 AM 64.0°F17.8°C 61.0°F16.1°C 90% 1.1 mph W1.8 kmh W 6.1 mph9.8 kmh 29.92 in1013.2 mb 0.00 in0.0 mm 0.00 in0.0 mm 0.00 in0.0 mm
08:00 AM 64.0°F17.8°C 61.0°F16.1°C 90% 2.7 mph W4.3 kmh W 11.1 mph17.9 kmh 29.92 in1013.2 mb 0.05 in1.3 mm 0.07 in1.8 mm 0.05 in1.3 mm
08:15 AM 63.7°F17.6°C 60.7°F15.9°C 90% 2.0 mph NW3.2 kmh NW 6.4 mph10.3 kmh 29.92 in1013.2 mb 0.05 in1.3 mm 0.00 in0.0 mm 0.05 in1.3 mm
08:30 AM 63.9°F17.7°C 60.9°F16.1°C 90% 0.3 mph W0.5 kmh W 3.6 mph5.8 kmh 29.92 in1013.2 mb 0.05 in1.3 mm 0.00 in0.0 mm 0.05 in1.3 mm
08:45 AM 63.7°F17.6°C 60.7°F15.9°C 90% 2.0 mph WNW3.2 kmh WNW 8.9 mph14.3 kmh 29.95 in1014.2 mb 0.05 in1.3 mm 0.00 in0.0 mm 0.05 in1.3 mm
09:00 AM 63.9°F17.7°C 60.9°F16.1°C 90% 3.4 mph W5.5 kmh W 10.4 mph16.7 kmh 29.95 in1014.2 mb 0.05 in1.3 mm 0.00 in0.0 mm 0.09 in2.3 mm
09:15 AM 63.9°F17.7°C 60.9°F16.1°C 90% 2.3 mph WNW3.7 kmh WNW 7.9 mph12.7 kmh 29.95 in1014.2 mb 0.05 in1.3 mm 0.00 in0.0 mm 0.09 in2.3 mm
09:30 AM 63.7°F17.6°C 60.7°F15.9°C 90% 3.3 mph W5.3 kmh W 7.9 mph12.7 kmh 29.95 in1014.2 mb 0.05 in1.3 mm 0.00 in0.0 mm 0.09 in2.3 mm
09:45 AM 63.7°F17.6°C 60.7°F15.9°C 90% 2.9 mph W4.7 kmh W 9.7 mph15.6 kmh 29.95 in1014.2 mb 0.05 in1.3 mm 0.00 in0.0 mm 0.09 in2.3 mm
10:00 AM 63.5°F17.5°C 60.5°F15.8°C 90% 3.1 mph W5.0 kmh W 10.0 mph16.1 kmh 29.95 in1014.2 mb 0.06 in1.5 mm 0.01 in0.3 mm 0.15 in3.8 mm
10:15 AM 63.7°F17.6°C 61.0°F16.1°C 91% 1.7 mph WNW2.7 kmh WNW 5.0 mph8.0 kmh 29.95 in1014.2 mb 0.06 in1.5 mm 0.00 in0.0 mm 0.15 in3.8 mm
10:30 AM 63.9°F17.7°C 60.9°F16.1°C 90% 1.7 mph W2.7 kmh W 6.1 mph9.8 kmh 29.95 in1014.2 mb 0.10 in2.5 mm 0.16 in4.1 mm 0.20 in5.1 mm
10:45 AM 64.6°F18.1°C 61.9°F16.6°C 91% 1.1 mph NW1.8 kmh NW 8.6 mph13.8 kmh 29.95 in1014.2 mb 0.10 in2.5 mm 0.00 in0.0 mm 0.20 in5.1 mm
11:00 AM 64.2°F17.9°C 61.2°F16.2°C 90% 3.0 mph WNW4.8 kmh WNW 9.7 mph15.6 kmh 29.95 in1014.2 mb 0.05 in1.3 mm 0.00 in0.0 mm 0.20 in5.1 mm
11:15 AM 64.2°F17.9°C 61.2°F16.2°C 90% 2.6 mph W4.2 kmh W 10.7 mph17.2 kmh 29.95 in1014.2 mb 0.05 in1.3 mm 0.00 in0.0 mm 0.20 in5.1 mm
11:30 AM 64.0°F17.8°C 61.0°F16.1°C 90% 2.1 mph W3.4 kmh W 7.5 mph12.1 kmh 29.95 in1014.2 mb 0.00 in0.0 mm 0.00 in0.0 mm 0.20 in5.1 mm
11:45 AM 66.2°F19.0°C 63.2°F17.3°C 90% 1.1 mph W1.8 kmh W 5.7 mph9.2 kmh 29.95 in1014.2 mb 0.05 in1.3 mm 0.20 in5.1 mm 0.24 in6.1 mm
12:00 PM 66.7°F19.3°C 62.7°F17.1°C 87% 2.5 mph WNW4.0 kmh WNW 7.9 mph12.7 kmh 29.95 in1014.2 mb 0.05 in1.3 mm 0.00 in0.0 mm 0.24 in6.1 mm
12:15 PM 66.2°F19.0°C 61.9°F16.6°C 86% 2.5 mph WNW4.0 kmh WNW 6.8 mph10.9 kmh 29.95 in1014.2 mb 0.05 in1.3 mm 0.00 in0.0 mm 0.24 in6.1 mm
12:30 PM 67.3°F19.6°C 63.3°F17.4°C 87% 2.0 mph WNW3.2 kmh WNW 7.2 mph11.6 kmh 29.95 in1014.2 mb 0.05 in1.3 mm 0.00 in0.0 mm 0.24 in6.1 mm
12:45 PM 68.2°F20.1°C 63.5°F17.5°C 85% 1.6 mph W2.6 kmh W 5.7 mph9.2 kmh 29.95 in1014.2 mb 0.00 in0.0 mm 0.00 in0.0 mm 0.24 in6.1 mm
01:00 PM 67.6°F19.8°C 62.6°F17.0°C 84% 1.1 mph W1.8 kmh W 5.4 mph8.7 kmh 29.95 in1014.2 mb 0.00 in0.0 mm 0.00 in0.0 mm 0.24 in6.1 mm
01:15 PM 67.3°F19.6°C 62.3°F16.8°C 84% 1.2 mph W1.9 kmh W 6.4 mph10.3 kmh 29.95 in1014.2 mb 0.00 in0.0 mm 0.00 in0.0 mm 0.24 in6.1 mm
01:30 PM 68.4°F20.2°C 63.7°F17.6°C 85% 1.7 mph SW2.7 kmh SW 5.4 mph8.7 kmh 29.95 in1014.2 mb 0.00 in0.0 mm 0.00 in0.0 mm 0.24 in6.1 mm
01:45 PM 68.0°F20.0°C 62.6°F17.0°C 83% 1.6 mph W2.6 kmh W 6.8 mph10.9 kmh 29.92 in1013.2 mb 0.00 in0.0 mm 0.00 in0.0 mm 0.24 in6.1 mm
02:00 PM 67.6°F19.8°C 62.6°F17.0°C 84% 1.4 mph WSW2.3 kmh WSW 5.4 mph8.7 kmh 29.92 in1013.2 mb 0.00 in0.0 mm 0.00 in0.0 mm 0.24 in6.1 mm
02:15 PM 68.2°F20.1°C 62.8°F17.1°C 83% 1.6 mph WNW2.6 kmh WNW 6.1 mph9.8 kmh 29.92 in1013.2 mb 0.00 in0.0 mm 0.00 in0.0 mm 0.24 in6.1 mm
02:30 PM 68.4°F20.2°C 63.0°F17.2°C 83% 1.5 mph W2.4 kmh W 6.4 mph10.3 kmh 29.92 in1013.2 mb 0.00 in0.0 mm 0.00 in0.0 mm 0.24 in6.1 mm
02:45 PM 68.4°F20.2°C 62.6°F17.0°C 82% 1.5 mph WSW2.4 kmh WSW 6.8 mph10.9 kmh 29.92 in1013.2 mb 0.00 in0.0 mm 0.00 in0.0 mm 0.24 in6.1 mm
03:00 PM 68.4°F20.2°C 63.0°F17.2°C 83% 1.7 mph SW2.7 kmh SW 6.1 mph9.8 kmh 29.92 in1013.2 mb 0.00 in0.0 mm 0.00 in0.0 mm 0.24 in6.1 mm
03:15 PM 68.0°F20.0°C 62.3°F16.8°C 82% 2.9 mph S4.7 kmh S 7.5 mph12.1 kmh 29.92 in1013.2 mb 0.00 in0.0 mm 0.00 in0.0 mm 0.24 in6.1 mm
03:30 PM 67.3°F19.6°C 61.9°F16.6°C 83% 1.4 mph S2.3 kmh S 6.1 mph9.8 kmh 29.92 in1013.2 mb 0.00 in0.0 mm 0.00 in0.0 mm 0.24 in6.1 mm
03:45 PM 67.1°F19.5°C 62.4°F16.9°C 85% 0.4 mph SSE0.6 kmh SSE 3.6 mph5.8 kmh 29.92 in1013.2 mb 0.00 in0.0 mm 0.00 in0.0 mm 0.24 in6.1 mm
04:00 PM 66.6°F19.2°C 61.9°F16.6°C 85% 1.0 mph SE1.6 kmh SE 5.4 mph8.7 kmh 29.92 in1013.2 mb 0.00 in0.0 mm 0.00 in0.0 mm 0.24 in6.1 mm
04:15 PM 66.4°F19.1°C 62.1°F16.7°C 86% Calm Calm -- 29.92 in1013.2 mb 0.00 in0.0 mm 0.00 in0.0 mm 0.24 in6.1 mm
04:30 PM 66.6°F19.2°C 62.2°F16.8°C 86% 2.5 mph S4.0 kmh S 6.4 mph10.3 kmh 29.92 in1013.2 mb 0.00 in0.0 mm 0.00 in0.0 mm 0.24 in6.1 mm
04:45 PM 66.4°F19.1°C 62.4°F16.9°C 87% 4.1 mph S6.6 kmh S 9.3 mph15.0 kmh 29.92 in1013.2 mb 0.00 in0.0 mm 0.00 in0.0 mm 0.24 in6.1 mm
04:55 PM 66.4°F19.1°C 62.4°F16.9°C 87% 5.5 mph S8.9 kmh S 6.8 mph10.9 kmh 29.92 in1013.2 mb 0.00 in0.0 mm 0.00 in0.0 mm 0.24 in6.1 mm
05:00 PM 66.2°F19.0°C 62.5°F16.9°C 88% 4.0 mph S6.4 kmh S 10.4 mph16.7 kmh 29.89 in1012.2 mb 0.00 in0.0 mm 0.00 in0.0 mm 0.24 in6.1 mm
05:15 PM 66.2°F19.0°C 62.5°F16.9°C 88% 3.9 mph S6.3 kmh S 11.5 mph18.5 kmh 29.89 in1012.2 mb 0.00 in0.0 mm 0.00 in0.0 mm 0.24 in6.1 mm
05:30 PM 66.2°F19.0°C 62.9°F17.2°C 89% 4.0 mph SSW6.4 kmh SSW 12.2 mph19.6 kmh 29.89 in1012.2 mb 0.00 in0.0 mm 0.00 in0.0 mm 0.24 in6.1 mm
05:45 PM 66.0°F18.9°C 62.7°F17.1°C 89% 4.8 mph SW7.7 kmh SW 11.5 mph18.5 kmh 29.89 in1012.2 mb 0.00 in0.0 mm 0.00 in0.0 mm 0.24 in6.1 mm
06:00 PM 65.7°F18.7°C 62.6°F17.0°C 90% 4.1 mph SW6.6 kmh SW 10.4 mph16.7 kmh 29.86 in1011.2 mb 0.00 in0.0 mm 0.00 in0.0 mm 0.24 in6.1 mm
06:15 PM 65.3°F18.5°C 62.3°F16.8°C 90% 4.1 mph SW6.6 kmh SW 11.5 mph18.5 kmh 29.86 in1011.2 mb 0.00 in0.0 mm 0.00 in0.0 mm 0.24 in6.1 mm
06:30 PM 65.1°F18.4°C 62.1°F16.7°C 90% 4.4 mph SW7.1 kmh SW 10.0 mph16.1 kmh 29.86 in1011.2 mb 0.05 in1.3 mm 0.20 in5.1 mm 0.29 in7.4 mm
06:45 PM 64.8°F18.2°C 61.8°F16.6°C 90% 5.0 mph SW8.0 kmh SW 12.9 mph20.8 kmh 29.86 in1011.2 mb 0.09 in2.3 mm 0.16 in4.1 mm 0.33 in8.4 mm
07:00 PM 64.6°F18.1°C 61.9°F16.6°C 91% 4.9 mph SSW7.9 kmh SSW 11.5 mph18.5 kmh 29.86 in1011.2 mb 0.09 in2.3 mm 0.00 in0.0 mm 0.33 in8.4 mm
07:15 PM 64.4°F18.0°C 61.7°F16.5°C 91% 5.7 mph SW9.2 kmh SW 11.8 mph19.0 kmh 29.83 in1010.2 mb 0.09 in2.3 mm 0.00 in0.0 mm 0.33 in8.4 mm
07:30 PM 64.0°F17.8°C 61.4°F16.3°C 91% 4.6 mph WSW7.4 kmh WSW 11.5 mph18.5 kmh 29.86 in1011.2 mb 0.09 in2.3 mm 0.00 in0.0 mm 0.38 in9.7 mm
07:45 PM 63.9°F17.7°C 61.2°F16.2°C 91% 2.9 mph SSW4.7 kmh SSW 7.5 mph12.1 kmh 29.86 in1011.2 mb 0.10 in2.5 mm 0.04 in1.0 mm 0.44 in11.2 mm
08:00 PM 63.7°F17.6°C 61.0°F16.1°C 91% 2.9 mph SW4.7 kmh SW 9.3 mph15.0 kmh 29.86 in1011.2 mb 0.14 in3.6 mm 0.05 in1.3 mm 0.47 in11.9 mm
08:15 PM 63.5°F17.5°C 61.1°F16.2°C 92% 4.1 mph SSW6.6 kmh SSW 13.6 mph21.9 kmh 29.86 in1011.2 mb 0.19 in4.8 mm 0.20 in5.1 mm 0.53 in13.5 mm
08:30 PM 63.5°F17.5°C 61.1°F16.2°C 92% 4.2 mph SSW6.8 kmh SSW 8.9 mph14.3 kmh 29.86 in1011.2 mb 0.15 in3.8 mm 0.00 in0.0 mm 0.53 in13.5 mm
08:45 PM 63.3°F17.4°C 61.0°F16.1°C 92% 2.4 mph SSW3.9 kmh SSW 6.4 mph10.3 kmh 29.86 in1011.2 mb 0.09 in2.3 mm 0.00 in0.0 mm 0.53 in13.5 mm
09:00 PM 63.1°F17.3°C 60.8°F16.0°C 92% 1.4 mph SSW2.3 kmh SSW 6.1 mph9.8 kmh 29.86 in1011.2 mb 0.06 in1.5 mm 0.00 in0.0 mm 0.53 in13.5 mm
09:15 PM 63.1°F17.3°C 60.8°F16.0°C 92% 2.2 mph S3.5 kmh S 5.7 mph9.2 kmh 29.83 in1010.2 mb 0.00 in0.0 mm 0.00 in0.0 mm 0.53 in13.5 mm
09:30 PM 63.3°F17.4°C 61.0°F16.1°C 92% 2.8 mph S4.5 kmh S 6.4 mph10.3 kmh 29.83 in1010.2 mb 0.00 in0.0 mm 0.00 in0.0 mm 0.53 in13.5 mm
09:45 PM 63.3°F17.4°C 61.0°F16.1°C 92% 2.8 mph S4.5 kmh S 12.9 mph20.8 kmh 29.83 in1010.2 mb 0.00 in0.0 mm 0.00 in0.0 mm 0.53 in13.5 mm
10:00 PM 63.5°F17.5°C 61.4°F16.3°C 93% 4.4 mph S7.1 kmh S 10.4 mph16.7 kmh 29.83 in1010.2 mb 0.00 in0.0 mm 0.00 in0.0 mm 0.53 in13.5 mm
10:15 PM 63.5°F17.5°C 61.4°F16.3°C 93% 5.5 mph S8.9 kmh S 11.8 mph19.0 kmh 29.83 in1010.2 mb 0.00 in0.0 mm 0.00 in0.0 mm 0.53 in13.5 mm
10:30 PM 63.5°F17.5°C 61.4°F16.3°C 93% 4.9 mph S7.9 kmh S 10.4 mph16.7 kmh 29.83 in1010.2 mb 0.05 in1.3 mm 0.20 in5.1 mm 0.58 in14.7 mm
10:45 PM 63.3°F17.4°C 61.3°F16.3°C 93% 4.7 mph S7.6 kmh S 16.1 mph25.9 kmh 29.83 in1010.2 mb 0.09 in2.3 mm 0.16 in4.1 mm 0.62 in15.7 mm
11:00 PM 63.0°F17.2°C 60.9°F16.1°C 93% 4.6 mph S7.4 kmh S 9.7 mph15.6 kmh 29.80 in1009.1 mb 0.09 in2.3 mm 0.00 in0.0 mm 0.43 in10.9 mm
11:15 PM 62.8°F17.1°C 60.7°F15.9°C 93% 5.8 mph S9.3 kmh S 12.9 mph20.8 kmh 29.80 in1009.1 mb 0.14 in3.6 mm 0.20 in5.1 mm 0.05 in1.3 mm
11:30 PM 62.4°F16.9°C 60.4°F15.8°C 93% 4.3 mph S6.9 kmh S 9.7 mph15.6 kmh 29.80 in1009.1 mb 0.19 in4.8 mm 0.20 in5.1 mm 0.14 in3.6 mm
11:45 PM 62.4°F16.9°C 60.7°F15.9°C 94% 4.4 mph S7.1 kmh S 9.3 mph15.0 kmh 29.80 in1009.1 mb 0.14 in3.6 mm 0.00 in0.0 mm 0.14 in3.6 mm